Austinburg, Pennsylvania
Current Conditions -  °F | °C
As of 12:35 AM on Saturday 01 Nov 2014 (Local Time) from KN38 Reporting Station
Overcast Overcast  
Wind Chill: 34°   Ceiling: 6000
Heat Index: 39°   Visibility: 10mi
Dew Point: 36°   Wind: 7mph
Humidity: 87%   Direction: 20°NNE
Pressure: 29.9"   Gusts: NA
Location:  41.9659°N, 77.4284°W
Report Text: KN38 010435Z AUTO 02006KT 10SM OVC060 04/02 A2990 RMK AO2
Loading
Personal Weather Stations






























Interactive Weather Map
Tropical Storm Tracking
New forecast layout! Learn more

10-Day Weather Forecast

Advertisements
Track Severe Weather on mobile